Time;durP1;ratioP1;P1;durP2;ratioP2;P2;SDS_P1;SDS_P2;PMS_P1;PMS_P2;Temp;Humidity;BMP_temperature;BMP_pressure;BME280_temperature;BME280_humidity;BME280_pressure;Samples;Min_cycle;Max_cycle;Signal;HPM_P1;HPM_P2
2022/11/13 00:00:11;;;;;;;4.00;3.70;;;;;;;;;;4964535;28;20208;-64
2022/11/13 00:02:38;;;;;;;4.40;4.00;;;;;;;;;;4964930;28;20219;-63
2022/11/13 00:05:06;;;;;;;4.30;3.90;;;;;;;;;;4968338;28;20678;-62
2022/11/13 00:07:33;;;;;;;4.40;4.00;;;;;;;;;;4967060;28;21620;-64
2022/11/13 00:10:00;;;;;;;4.40;4.00;;;;;;;;;;4962474;28;20208;-64
2022/11/13 00:12:28;;;;;;;4.07;3.77;;;;;;;;;;4967688;28;20227;-64
2022/11/13 00:14:55;;;;;;;4.00;3.70;;;;;;;;;;4976169;28;20236;-64
2022/11/13 00:17:23;;;;;;;4.30;3.90;;;;;;;;;;4980432;28;20243;-63
2022/11/13 00:19:50;;;;;;;5.63;4.93;;;;;;;;;;4981011;28;20287;-64
2022/11/13 00:22:17;;;;;;;4.63;4.23;;;;;;;;;;4987248;28;20263;-64
2022/11/13 00:24:45;;;;;;;4.53;4.13;;;;;;;;;;5000871;28;20498;-64
2022/11/13 00:27:12;;;;;;;4.57;4.17;;;;;;;;;;4987421;28;20231;-64
2022/11/13 00:29:39;;;;;;;8.60;5.10;;;;;;;;;;4971452;28;20260;-64
2022/11/13 00:32:07;;;;;;;10.10;7.30;;;;;;;;;;4981502;28;20689;-63
2022/11/13 00:34:34;;;;;;;9.67;7.63;;;;;;;;;;4963777;28;20214;-64
2022/11/13 00:37:17;;;;;;;9.57;7.00;;;;;;;;;;4969161;28;20208;-63
2022/11/13 00:39:44;;;;;;;8.00;6.60;;;;;;;;;;4970417;28;20261;-64
2022/11/13 00:42:12;;;;;;;9.53;7.67;;;;;;;;;;4979810;28;20247;-64
2022/11/13 00:44:39;;;;;;;5.97;4.70;;;;;;;;;;4995480;28;20262;-63
2022/11/13 00:47:07;;;;;;;5.33;4.60;;;;;;;;;;4971376;28;20215;-62
2022/11/13 00:49:34;;;;;;;5.67;5.17;;;;;;;;;;4980600;28;20207;-61
2022/11/13 00:52:02;;;;;;;6.83;6.13;;;;;;;;;;4964600;28;20242;-63
2022/11/13 00:54:30;;;;;;;6.53;5.93;;;;;;;;;;4967147;28;20207;-63
2022/11/13 00:56:57;;;;;;;7.23;5.60;;;;;;;;;;4962491;28;20365;-63
2022/11/13 00:59:24;;;;;;;8.13;7.33;;;;;;;;;;4970013;28;20311;-63
2022/11/13 01:01:51;;;;;;;8.73;6.83;;;;;;;;;;4963978;28;20607;-64
2022/11/13 01:04:19;;;;;;;9.07;8.00;;;;;;;;;;4968136;28;20266;-63
2022/11/13 01:06:46;;;;;;;10.50;8.57;;;;;;;;;;4964495;28;20805;-64
2022/11/13 01:09:17;;;;;;;9.80;8.80;;;;;;;;;;4969421;28;20216;-64
2022/11/13 01:11:44;;;;;;;10.20;8.60;;;;;;;;;;4965531;28;20219;-64
2022/11/13 01:14:12;;;;;;;10.43;8.80;;;;;;;;;;4968181;28;20727;-64
2022/11/13 01:16:39;;;;;;;9.27;8.17;;;;;;;;;;4962089;28;20980;-63
2022/11/13 01:19:07;;;;;;;10.43;7.67;;;;;;;;;;4969425;28;20753;-63
2022/11/13 01:21:37;;;;;;;8.83;6.97;;;;;;;;;;4961432;28;20228;-62
2022/11/13 01:24:05;;;;;;;7.40;6.70;;;;;;;;;;4985218;28;20214;-62
2022/11/13 01:26:32;;;;;;;6.70;5.97;;;;;;;;;;4967342;28;20680;-62
2022/11/13 01:28:59;;;;;;;7.00;6.00;;;;;;;;;;4984700;28;20211;-63
2022/11/13 01:31:29;;;;;;;6.70;5.93;;;;;;;;;;4982652;28;20236;-62
2022/11/13 01:33:56;;;;;;;7.23;6.30;;;;;;;;;;4984320;28;20731;-63
2022/11/13 01:36:26;;;;;;;7.77;6.27;;;;;;;;;;4984888;28;20303;-64
2022/11/13 01:38:53;;;;;;;7.67;6.87;;;;;;;;;;4974713;28;20233;-63
2022/11/13 01:41:21;;;;;;;9.93;6.93;;;;;;;;;;4974304;28;20235;-63
2022/11/13 01:43:50;;;;;;;9.93;6.70;;;;;;;;;;4965857;28;20234;-64
2022/11/13 01:46:39;;;;;;;8.43;6.17;;;;;;;;;;4962806;28;20885;-64
2022/11/13 01:49:09;;;;;;;9.23;6.60;;;;;;;;;;4968365;28;20203;-64
2022/11/13 01:51:42;;;;;;;7.53;6.10;;;;;;;;;;4976608;28;20232;-63
2022/11/13 01:54:17;;;;;;;7.93;6.37;;;;;;;;;;4954419;28;20644;-62
2022/11/13 01:56:45;;;;;;;7.00;5.70;;;;;;;;;;4983752;28;20235;-63
2022/11/13 01:59:13;;;;;;;7.10;6.00;;;;;;;;;;4964032;28;21141;-64
2022/11/13 02:01:41;;;;;;;6.00;5.40;;;;;;;;;;4969583;28;20358;-63
2022/11/13 02:04:09;;;;;;;5.97;5.13;;;;;;;;;;4964830;28;20315;-62
2022/11/13 02:06:41;;;;;;;5.60;5.00;;;;;;;;;;4967121;28;20207;-62
2022/11/13 02:09:09;;;;;;;5.97;4.73;;;;;;;;;;4964877;28;20211;-63
2022/11/13 02:11:37;;;;;;;12.70;4.93;;;;;;;;;;4972162;28;20227;-63
2022/11/13 02:14:05;;;;;;;7.53;5.20;;;;;;;;;;4974514;28;21013;-63
2022/11/13 02:16:34;;;;;;;7.97;5.03;;;;;;;;;;4986426;28;20233;-63
2022/11/13 02:19:09;;;;;;;13.57;5.30;;;;;;;;;;4970566;28;20673;-62
2022/11/13 02:21:36;;;;;;;13.07;5.50;;;;;;;;;;4970087;28;21110;-63
2022/11/13 02:24:27;;;;;;;9.57;5.60;;;;;;;;;;4966014;28;20200;-62
2022/11/13 02:26:58;;;;;;;14.57;5.20;;;;;;;;;;4969487;28;20306;-63
2022/11/13 02:29:26;;;;;;;10.00;4.73;;;;;;;;;;4972744;28;20231;-64
2022/11/13 02:31:53;;;;;;;12.23;4.20;;;;;;;;;;4982509;28;20265;-64
2022/11/13 02:34:20;;;;;;;6.17;4.77;;;;;;;;;;4977924;28;20244;-64
2022/11/13 02:36:48;;;;;;;19.20;5.40;;;;;;;;;;4979556;28;20238;-64
2022/11/13 02:39:16;;;;;;;17.23;5.77;;;;;;;;;;4981989;28;20208;-61
2022/11/13 02:41:43;;;;;;;6.37;4.93;;;;;;;;;;5000934;28;20318;-63
2022/11/13 02:44:10;;;;;;;13.67;5.43;;;;;;;;;;4983709;28;20902;-63
2022/11/13 02:46:38;;;;;;;29.73;6.27;;;;;;;;;;4978599;28;20610;-62
2022/11/13 02:49:06;;;;;;;8.57;5.53;;;;;;;;;;4979254;28;20211;-62
2022/11/13 02:51:34;;;;;;;7.13;5.70;;;;;;;;;;4975910;28;20233;-63
2022/11/13 02:54:02;;;;;;;9.33;5.97;;;;;;;;;;4974672;28;20226;-62
2022/11/13 02:56:29;;;;;;;14.20;5.17;;;;;;;;;;4978900;28;20354;-63
2022/11/13 02:58:57;;;;;;;10.60;6.00;;;;;;;;;;4940412;28;20212;-63
2022/11/13 03:01:25;;;;;;;15.17;5.77;;;;;;;;;;4961448;28;20231;-64
2022/11/13 03:03:53;;;;;;;8.33;5.37;;;;;;;;;;4963109;28;20208;-62
2022/11/13 03:06:24;;;;;;;7.57;5.77;;;;;;;;;;4970636;28;20684;-62
2022/11/13 03:08:54;;;;;;;6.57;5.97;;;;;;;;;;4960430;28;20421;-63
2022/11/13 03:11:22;;;;;;;9.27;5.43;;;;;;;;;;4964820;28;23044;-63
2022/11/13 03:13:49;;;;;;;6.53;5.37;;;;;;;;;;4968438;28;20247;-62
2022/11/13 03:16:17;;;;;;;15.00;5.63;;;;;;;;;;4968424;28;20669;-64
2022/11/13 03:18:44;;;;;;;7.90;5.07;;;;;;;;;;4984736;28;20217;-63
2022/11/13 03:21:13;;;;;;;7.33;6.00;;;;;;;;;;4965696;28;20223;-63
2022/11/13 03:23:43;;;;;;;7.57;6.23;;;;;;;;;;4987595;28;20212;-63
2022/11/13 03:26:12;;;;;;;17.60;5.83;;;;;;;;;;4961569;28;20220;-61
2022/11/13 03:28:39;;;;;;;11.60;5.40;;;;;;;;;;4962595;28;20251;-64
2022/11/13 03:31:07;;;;;;;13.00;5.87;;;;;;;;;;4969604;28;20223;-63
2022/11/13 03:33:34;;;;;;;12.27;5.27;;;;;;;;;;4963655;28;20303;-63
2022/11/13 03:36:02;;;;;;;11.67;6.07;;;;;;;;;;4971264;28;20314;-63
2022/11/13 03:38:33;;;;;;;14.87;5.70;;;;;;;;;;4961707;28;20285;-62
2022/11/13 03:41:00;;;;;;;34.00;6.40;;;;;;;;;;4970547;28;20614;-63
2022/11/13 03:43:27;;;;;;;41.53;6.43;;;;;;;;;;4964764;28;21087;-62
2022/11/13 03:45:55;;;;;;;48.20;6.77;;;;;;;;;;4966244;28;20303;-62
2022/11/13 03:48:22;;;;;;;24.30;5.97;;;;;;;;;;4961797;28;20203;-63
2022/11/13 03:50:52;;;;;;;29.93;6.30;;;;;;;;;;4966298;28;20223;-62
2022/11/13 03:53:19;;;;;;;12.13;5.80;;;;;;;;;;4969926;28;20611;-63
2022/11/13 03:55:47;;;;;;;48.30;6.03;;;;;;;;;;4967964;28;20215;-62
2022/11/13 03:58:15;;;;;;;20.03;6.23;;;;;;;;;;4986907;28;20235;-63
2022/11/13 04:00:42;;;;;;;7.73;5.60;;;;;;;;;;4964604;28;20231;-64
2022/11/13 04:03:10;;;;;;;6.53;5.93;;;;;;;;;;4970674;28;20681;-62
2022/11/13 04:05:38;;;;;;;9.63;5.63;;;;;;;;;;4963573;28;21599;-62
2022/11/13 04:08:06;;;;;;;11.00;5.83;;;;;;;;;;4955527;28;20843;-63
2022/11/13 04:10:33;;;;;;;6.67;5.73;;;;;;;;;;4965815;28;20228;-64
2022/11/13 04:13:01;;;;;;;6.23;5.63;;;;;;;;;;4974449;28;20208;-64
2022/11/13 04:15:28;;;;;;;6.13;5.63;;;;;;;;;;4966556;28;20302;-64
2022/11/13 04:17:55;;;;;;;6.50;5.80;;;;;;;;;;4965930;28;20326;-63
2022/11/13 04:20:23;;;;;;;5.27;4.77;;;;;;;;;;4968839;28;20249;-62
2022/11/13 04:22:51;;;;;;;5.70;5.20;;;;;;;;;;4973420;28;20571;-64
2022/11/13 04:25:18;;;;;;;5.50;5.00;;;;;;;;;;4985918;28;20214;-64
2022/11/13 04:27:45;;;;;;;5.53;4.97;;;;;;;;;;4969675;28;20218;-64
2022/11/13 04:30:13;;;;;;;5.80;5.30;;;;;;;;;;4967041;28;20239;-64
2022/11/13 04:32:40;;;;;;;5.03;4.63;;;;;;;;;;4967367;28;20215;-64
2022/11/13 04:35:08;;;;;;;5.00;4.60;;;;;;;;;;4972644;28;20265;-63
2022/11/13 04:37:35;;;;;;;5.43;4.93;;;;;;;;;;4967785;28;28187;-64
2022/11/13 04:40:04;;;;;;;5.00;4.57;;;;;;;;;;4970074;28;20692;-64
2022/11/13 04:42:49;;;;;;;5.03;4.60;;;;;;;;;;4969245;28;20314;-64
2022/11/13 04:45:18;;;;;;;5.50;4.60;;;;;;;;;;4970834;28;21249;-64
2022/11/13 04:47:46;;;;;;;5.17;4.67;;;;;;;;;;4970425;28;20239;-63
2022/11/13 04:50:14;;;;;;;5.33;4.60;;;;;;;;;;4962798;28;20700;-63
2022/11/13 04:52:42;;;;;;;5.07;4.67;;;;;;;;;;4965712;28;20211;-62
2022/11/13 04:55:10;;;;;;;5.60;5.10;;;;;;;;;;4970987;28;21193;-62
2022/11/13 04:57:37;;;;;;;4.73;4.33;;;;;;;;;;4964716;28;20235;-61
2022/11/13 05:00:06;;;;;;;4.57;4.17;;;;;;;;;;4966806;28;20202;-62
2022/11/13 05:02:33;;;;;;;5.30;4.80;;;;;;;;;;4970974;28;20760;-63
2022/11/13 05:05:02;;;;;;;4.97;4.57;;;;;;;;;;4987709;28;20199;-64
2022/11/13 05:07:34;;;;;;;5.37;4.87;;;;;;;;;;4965949;28;20210;-62
2022/11/13 05:10:01;;;;;;;5.43;4.93;;;;;;;;;;4965960;28;20240;-64
2022/11/13 05:12:29;;;;;;;7.10;5.33;;;;;;;;;;4964211;28;20605;-63
2022/11/13 05:14:56;;;;;;;5.67;5.17;;;;;;;;;;4974910;28;20211;-63
2022/11/13 05:17:23;;;;;;;6.33;5.70;;;;;;;;;;4978193;28;20476;-64
2022/11/13 05:19:51;;;;;;;6.33;5.63;;;;;;;;;;4976391;28;20215;-64
2022/11/13 05:22:18;;;;;;;5.27;4.80;;;;;;;;;;4961864;28;20236;-64
2022/11/13 05:24:45;;;;;;;6.47;5.67;;;;;;;;;;4959775;28;20302;-64
2022/11/13 05:27:13;;;;;;;6.33;5.47;;;;;;;;;;4967634;28;20396;-62
2022/11/13 05:29:44;;;;;;;9.00;6.27;;;;;;;;;;4986053;28;20207;-63
2022/11/13 05:32:11;;;;;;;6.47;5.47;;;;;;;;;;5003755;28;20263;-62
2022/11/13 05:34:38;;;;;;;7.60;5.67;;;;;;;;;;4975731;28;20215;-63
2022/11/13 05:37:06;;;;;;;6.60;5.90;;;;;;;;;;4980712;28;20258;-63
2022/11/13 05:39:33;;;;;;;8.03;5.90;;;;;;;;;;4970725;28;20692;-63
2022/11/13 05:42:00;;;;;;;7.00;6.30;;;;;;;;;;4963636;28;20360;-64
2022/11/13 05:44:27;;;;;;;7.70;6.17;;;;;;;;;;4964216;28;20215;-64
2022/11/13 05:46:55;;;;;;;9.30;6.90;;;;;;;;;;4963465;28;20251;-63
2022/11/13 05:49:22;;;;;;;9.43;7.17;;;;;;;;;;4968775;28;20208;-64
2022/11/13 05:51:50;;;;;;;8.70;7.30;;;;;;;;;;4961174;28;20632;-62
2022/11/13 05:54:17;;;;;;;8.17;6.73;;;;;;;;;;4971597;28;20203;-62
2022/11/13 05:56:44;;;;;;;8.77;7.10;;;;;;;;;;4962407;28;20231;-64
2022/11/13 05:59:11;;;;;;;10.07;7.77;;;;;;;;;;4953972;28;20208;-63
2022/11/13 06:01:39;;;;;;;9.30;7.37;;;;;;;;;;4962839;28;21703;-64
2022/11/13 06:04:07;;;;;;;12.90;7.40;;;;;;;;;;4983763;28;21185;-62
2022/11/13 06:06:35;;;;;;;10.10;7.67;;;;;;;;;;4961655;28;20207;-62
2022/11/13 06:09:03;;;;;;;7.87;6.93;;;;;;;;;;4978030;28;20219;-63
2022/11/13 06:11:31;;;;;;;7.90;6.97;;;;;;;;;;4967550;28;20326;-63
2022/11/13 06:13:59;;;;;;;9.40;7.13;;;;;;;;;;4956009;28;20219;-62
2022/11/13 06:16:29;;;;;;;11.60;7.67;;;;;;;;;;4974462;28;20302;-62
2022/11/13 06:18:57;;;;;;;11.37;8.87;;;;;;;;;;4957732;28;20218;-62
2022/11/13 06:21:26;;;;;;;9.47;7.90;;;;;;;;;;4967355;28;20347;-63
2022/11/13 06:23:54;;;;;;;11.03;8.30;;;;;;;;;;4968131;28;20776;-63
2022/11/13 06:26:26;;;;;;;12.77;10.50;;;;;;;;;;4962432;28;21309;-62
2022/11/13 06:28:53;;;;;;;19.13;14.43;;;;;;;;;;4965326;28;20208;-62
2022/11/13 06:31:22;;;;;;;21.67;16.33;;;;;;;;;;4979372;28;20232;-63
2022/11/13 06:33:50;;;;;;;21.30;16.33;;;;;;;;;;5001627;28;20294;-64
2022/11/13 06:36:18;;;;;;;15.13;11.60;;;;;;;;;;4989989;28;20204;-63
2022/11/13 06:38:46;;;;;;;8.17;7.00;;;;;;;;;;4991012;28;21187;-63
2022/11/13 06:41:14;;;;;;;6.63;6.03;;;;;;;;;;4971165;28;20322;-62
2022/11/13 06:43:42;;;;;;;5.83;5.30;;;;;;;;;;4969629;28;20250;-62
2022/11/13 06:46:12;;;;;;;7.97;7.17;;;;;;;;;;4964481;28;20295;-63
2022/11/13 06:48:40;;;;;;;24.30;15.33;;;;;;;;;;4966126;28;20205;-62
2022/11/13 06:51:09;;;;;;;22.17;15.73;;;;;;;;;;4981172;28;20227;-63
2022/11/13 06:53:36;;;;;;;25.60;16.03;;;;;;;;;;4971128;28;20234;-64
2022/11/13 06:56:05;;;;;;;127.63;62.60;;;;;;;;;;4964594;28;20260;-63
2022/11/13 06:58:32;;;;;;;133.60;61.60;;;;;;;;;;4970562;28;20285;-63
2022/11/13 07:01:06;;;;;;;86.13;42.70;;;;;;;;;;4968884;28;20811;-64
2022/11/13 07:03:33;;;;;;;37.60;21.60;;;;;;;;;;4971817;28;20216;-63
2022/11/13 07:06:02;;;;;;;19.67;13.17;;;;;;;;;;4983022;28;20218;-62
2022/11/13 07:08:29;;;;;;;13.73;10.23;;;;;;;;;;4964511;28;20208;-63
2022/11/13 07:10:57;;;;;;;8.70;7.80;;;;;;;;;;4967231;28;20725;-64
2022/11/13 07:13:26;;;;;;;9.03;8.20;;;;;;;;;;4985732;28;20215;-63
2022/11/13 07:15:53;;;;;;;10.23;8.97;;;;;;;;;;4976571;28;20211;-62
2022/11/13 07:18:23;;;;;;;10.50;9.10;;;;;;;;;;4966666;28;20268;-64
2022/11/13 07:20:51;;;;;;;11.33;9.33;;;;;;;;;;4966143;28;20331;-63
2022/11/13 07:23:18;;;;;;;11.50;8.80;;;;;;;;;;4965413;28;20208;-63
2022/11/13 07:25:46;;;;;;;10.80;9.13;;;;;;;;;;4965987;28;20307;-63
2022/11/13 07:28:14;;;;;;;9.20;8.20;;;;;;;;;;4979216;28;20459;-64
2022/11/13 07:30:41;;;;;;;12.60;9.40;;;;;;;;;;4993825;28;20235;-64
2022/11/13 07:33:09;;;;;;;16.13;12.73;;;;;;;;;;4990039;28;20405;-63
2022/11/13 07:35:36;;;;;;;11.60;10.37;;;;;;;;;;4990266;28;20406;-63
2022/11/13 07:38:04;;;;;;;13.47;12.07;;;;;;;;;;4976950;28;20319;-62
2022/11/13 07:40:32;;;;;;;58.50;35.47;;;;;;;;;;4972352;28;20592;-64
2022/11/13 07:43:00;;;;;;;23.83;16.30;;;;;;;;;;4991058;28;20208;-66
2022/11/13 07:45:28;;;;;;;16.43;12.07;;;;;;;;;;4971998;28;20278;-63
2022/11/13 07:47:59;;;;;;;10.80;9.60;;;;;;;;;;4966928;28;20214;-64
2022/11/13 07:50:31;;;;;;;10.47;9.30;;;;;;;;;;4967878;28;20214;-64
2022/11/13 07:53:01;;;;;;;8.10;6.60;;;;;;;;;;4973956;28;20223;-62
2022/11/13 07:55:28;;;;;;;8.50;7.10;;;;;;;;;;4972263;28;21179;-64
2022/11/13 07:57:57;;;;;;;10.10;7.00;;;;;;;;;;4972652;28;20325;-62
2022/11/13 08:00:25;;;;;;;10.23;7.77;;;;;;;;;;4974709;28;20294;-64
2022/11/13 08:02:52;;;;;;;10.30;7.67;;;;;;;;;;4974752;28;20700;-63
2022/11/13 08:05:20;;;;;;;11.43;7.57;;;;;;;;;;4973501;28;20258;-63
2022/11/13 08:07:48;;;;;;;11.87;8.00;;;;;;;;;;4972413;28;20583;-63
2022/11/13 08:10:18;;;;;;;13.00;8.90;;;;;;;;;;4972254;28;21346;-63
2022/11/13 08:12:46;;;;;;;13.43;8.60;;;;;;;;;;4973272;28;20236;-63
2022/11/13 08:15:14;;;;;;;13.20;9.67;;;;;;;;;;4974189;28;20268;-63
2022/11/13 08:17:41;;;;;;;20.70;9.97;;;;;;;;;;4978229;28;20658;-64
2022/11/13 08:20:09;;;;;;;16.73;8.33;;;;;;;;;;4969786;28;20593;-63
2022/11/13 08:22:36;;;;;;;14.17;8.33;;;;;;;;;;4975432;28;20251;-63
2022/11/13 08:25:04;;;;;;;26.80;14.73;;;;;;;;;;4970827;28;20215;-63
2022/11/13 08:27:31;;;;;;;21.30;11.23;;;;;;;;;;4992224;28;20231;-64
2022/11/13 08:29:59;;;;;;;14.67;9.70;;;;;;;;;;4978515;28;20303;-62
2022/11/13 08:32:26;;;;;;;24.93;13.10;;;;;;;;;;4973086;28;20294;-64
2022/11/13 08:34:54;;;;;;;26.07;12.70;;;;;;;;;;4971829;28;20697;-62
2022/11/13 08:37:21;;;;;;;16.67;11.23;;;;;;;;;;4978758;28;20318;-63
2022/11/13 08:39:48;;;;;;;33.80;14.13;;;;;;;;;;4967669;28;20381;-64
2022/11/13 08:42:15;;;;;;;28.13;11.17;;;;;;;;;;4972712;28;20224;-63
2022/11/13 08:44:43;;;;;;;15.27;10.50;;;;;;;;;;4970482;28;20211;-63
2022/11/13 08:47:10;;;;;;;17.23;12.03;;;;;;;;;;4975264;28;20617;-64
2022/11/13 08:49:37;;;;;;;19.30;12.53;;;;;;;;;;4972396;28;20829;-64
2022/11/13 08:52:05;;;;;;;16.40;12.07;;;;;;;;;;4969205;28;20274;-62
2022/11/13 08:54:32;;;;;;;20.47;12.70;;;;;;;;;;4969838;28;20212;-63
2022/11/13 08:56:59;;;;;;;22.67;13.80;;;;;;;;;;4963378;28;20228;-62
2022/11/13 08:59:32;;;;;;;18.67;13.03;;;;;;;;;;4972270;28;20209;-64
2022/11/13 09:01:59;;;;;;;25.63;13.43;;;;;;;;;;4970528;28;20721;-63
2022/11/13 09:04:26;;;;;;;19.20;13.73;;;;;;;;;;4985479;28;20290;-65
2022/11/13 09:06:54;;;;;;;17.70;12.67;;;;;;;;;;4968511;28;20247;-64
2022/11/13 09:09:22;;;;;;;18.53;12.83;;;;;;;;;;4969384;28;20210;-63
2022/11/13 09:11:49;;;;;;;19.87;14.80;;;;;;;;;;4973735;28;20227;-64
2022/11/13 09:14:16;;;;;;;18.93;13.20;;;;;;;;;;4965314;28;20298;-63
2022/11/13 09:16:44;;;;;;;15.13;11.77;;;;;;;;;;4963819;28;20204;-63
2022/11/13 09:19:11;;;;;;;15.67;11.57;;;;;;;;;;4964932;28;20233;-63
2022/11/13 09:21:39;;;;;;;15.00;10.83;;;;;;;;;;4980552;28;20725;-63
2022/11/13 09:24:06;;;;;;;12.90;9.73;;;;;;;;;;4962307;28;20211;-63
2022/11/13 09:26:34;;;;;;;13.67;11.00;;;;;;;;;;4970238;28;20208;-64
2022/11/13 09:29:03;;;;;;;16.03;12.00;;;;;;;;;;5001506;28;20211;-63
2022/11/13 09:31:30;;;;;;;17.07;12.27;;;;;;;;;;4976430;28;20228;-64
2022/11/13 09:33:57;;;;;;;16.17;11.80;;;;;;;;;;4983201;28;20235;-64
2022/11/13 09:36:24;;;;;;;19.30;12.90;;;;;;;;;;4976908;28;20239;-63
2022/11/13 09:38:52;;;;;;;19.07;13.27;;;;;;;;;;4959692;28;20231;-63
2022/11/13 09:41:39;;;;;;;15.00;12.13;;;;;;;;;;4964036;28;20334;-62
2022/11/13 09:44:13;;;;;;;17.33;12.83;;;;;;;;;;4945903;28;21244;-64
2022/11/13 09:46:46;;;;;;;15.47;11.63;;;;;;;;;;4953886;28;20206;-64
2022/11/13 09:49:28;;;;;;;14.73;11.30;;;;;;;;;;4954749;28;20301;-64
2022/11/13 09:51:57;;;;;;;16.23;12.73;;;;;;;;;;4955948;28;21021;-64
2022/11/13 09:54:28;;;;;;;15.70;12.10;;;;;;;;;;4933996;28;20226;-62
2022/11/13 09:56:59;;;;;;;15.27;12.33;;;;;;;;;;4943731;28;20320;-64
2022/11/13 09:59:28;;;;;;;14.60;11.50;;;;;;;;;;4963812;28;20703;-63
2022/11/13 10:02:15;;;;;;;13.77;11.13;;;;;;;;;;4950350;28;21372;-65
2022/11/13 10:04:56;;;;;;;12.20;10.07;;;;;;;;;;4966386;28;20258;-63
2022/11/13 10:07:43;;;;;;;12.97;10.87;;;;;;;;;;4955785;28;20203;-63
2022/11/13 10:10:19;;;;;;;12.63;10.57;;;;;;;;;;4951009;28;20298;-63
2022/11/13 10:12:48;;;;;;;14.23;11.53;;;;;;;;;;4953342;28;20226;-62
2022/11/13 10:15:15;;;;;;;13.63;11.17;;;;;;;;;;4947799;28;20218;-64
2022/11/13 10:17:49;;;;;;;14.63;12.13;;;;;;;;;;4955998;28;21651;-65
2022/11/13 10:20:32;;;;;;;13.00;10.77;;;;;;;;;;4979518;28;20204;-64
2022/11/13 10:23:08;;;;;;;10.27;9.23;;;;;;;;;;4952156;28;20231;-62
2022/11/13 10:25:36;;;;;;;9.63;8.53;;;;;;;;;;4955233;28;20210;-65
2022/11/13 10:28:30;;;;;;;10.87;8.93;;;;;;;;;;5018485;28;20269;-64
2022/11/13 10:31:18;;;;;;;10.60;9.07;;;;;;;;;;4992372;28;20231;-64
2022/11/13 10:33:45;;;;;;;9.27;8.30;;;;;;;;;;4978735;28;20733;-64
2022/11/13 10:36:13;;;;;;;9.10;8.20;;;;;;;;;;4978451;28;20298;-64
2022/11/13 10:38:43;;;;;;;10.30;9.20;;;;;;;;;;4989114;28;20331;-64
2022/11/13 10:41:20;;;;;;;8.70;7.77;;;;;;;;;;4979544;28;20250;-64
2022/11/13 10:44:02;;;;;;;8.90;8.00;;;;;;;;;;4977549;28;20322;-64
2022/11/13 10:46:30;;;;;;;9.53;8.37;;;;;;;;;;4982649;28;20215;-65
2022/11/13 10:48:57;;;;;;;11.47;9.37;;;;;;;;;;4986614;28;20243;-65
2022/11/13 10:51:34;;;;;;;11.43;9.53;;;;;;;;;;4975997;28;20318;-64
2022/11/13 10:54:14;;;;;;;9.63;8.43;;;;;;;;;;4974443;28;20211;-64
2022/11/13 10:56:41;;;;;;;9.37;8.07;;;;;;;;;;4975212;28;20203;-64
2022/11/13 10:59:09;;;;;;;11.20;9.73;;;;;;;;;;4988389;28;20227;-64
2022/11/13 11:01:37;;;;;;;10.40;8.73;;;;;;;;;;4974706;28;20362;-64
2022/11/13 11:04:05;;;;;;;12.67;9.67;;;;;;;;;;4975229;28;20782;-64
2022/11/13 11:06:36;;;;;;;9.53;8.43;;;;;;;;;;5001047;28;20196;-64
2022/11/13 11:09:31;;;;;;;9.63;8.63;;;;;;;;;;4993383;28;20207;-63
2022/11/13 11:12:20;;;;;;;10.07;8.70;;;;;;;;;;4997472;28;20235;-64
2022/11/13 11:14:57;;;;;;;10.37;8.13;;;;;;;;;;4978876;28;20302;-64
2022/11/13 11:17:27;;;;;;;8.87;7.97;;;;;;;;;;4980192;28;20208;-64
2022/11/13 11:20:19;;;;;;;9.13;8.23;;;;;;;;;;4979702;28;20694;-64
2022/11/13 11:22:47;;;;;;;9.80;8.63;;;;;;;;;;4947291;28;20211;-64
2022/11/13 11:25:15;;;;;;;9.60;8.10;;;;;;;;;;4980690;28;20299;-64
2022/11/13 11:27:47;;;;;;;10.23;8.93;;;;;;;;;;4981863;28;20203;-64
2022/11/13 11:30:18;;;;;;;13.07;9.63;;;;;;;;;;4989788;28;20605;-64
2022/11/13 11:33:04;;;;;;;9.87;8.67;;;;;;;;;;4978114;28;20297;-64
2022/11/13 11:35:32;;;;;;;8.23;7.30;;;;;;;;;;4979543;28;20310;-65
2022/11/13 11:38:03;;;;;;;11.13;9.10;;;;;;;;;;4982836;28;20310;-64
2022/11/13 11:40:32;;;;;;;12.73;9.73;;;;;;;;;;4987521;28;20236;-64
2022/11/13 11:43:19;;;;;;;8.13;7.03;;;;;;;;;;4983081;28;20630;-65
2022/11/13 11:45:47;;;;;;;13.43;8.63;;;;;;;;;;4979014;28;20689;-64
2022/11/13 11:48:18;;;;;;;9.60;7.60;;;;;;;;;;4983676;28;20637;-63
2022/11/13 11:50:50;;;;;;;9.77;7.30;;;;;;;;;;5000307;28;20272;-63
2022/11/13 11:53:30;;;;;;;7.50;6.70;;;;;;;;;;4978365;28;20333;-65
2022/11/13 11:56:01;;;;;;;7.40;6.60;;;;;;;;;;4983073;28;20200;-64
2022/11/13 11:58:49;;;;;;;6.63;6.00;;;;;;;;;;4995800;28;20277;-64
2022/11/13 12:01:16;;;;;;;6.57;5.97;;;;;;;;;;4984849;28;20310;-64
2022/11/13 12:04:10;;;;;;;6.53;5.83;;;;;;;;;;4982160;28;20218;-68
2022/11/13 12:06:56;;;;;;;6.45;5.50;;;;;;;;;;4984370;28;20212;-64
2022/11/13 12:09:33;;;;;;;6.40;5.80;;;;;;;;;;4995466;28;20580;-64
2022/11/13 12:12:04;;;;;;;5.50;5.03;;;;;;;;;;4997709;28;20738;-63
2022/11/13 12:14:51;;;;;;;5.38;4.88;;;;;;;;;;5000085;28;20515;-64
2022/11/13 12:17:26;;;;;;;6.22;5.63;;;;;;;;;;4976797;28;20290;-64
2022/11/13 12:20:20;;;;;;;6.45;5.45;;;;;;;;;;4975957;28;20642;-64
2022/11/13 12:23:07;;;;;;;5.88;5.35;;;;;;;;;;4977754;28;20210;-64
2022/11/13 12:25:38;;;;;;;5.37;4.87;;;;;;;;;;4982529;28;20302;-64
2022/11/13 12:28:25;;;;;;;6.10;5.50;;;;;;;;;;4987587;28;20199;-64
2022/11/13 12:31:03;;;;;;;6.37;5.77;;;;;;;;;;4972205;28;20235;-64
2022/11/13 12:33:37;;;;;;;6.37;5.70;;;;;;;;;;4989805;28;20230;-65
2022/11/13 12:36:04;;;;;;;6.70;6.07;;;;;;;;;;4999785;28;20231;-65
2022/11/13 12:38:39;;;;;;;10.77;6.23;;;;;;;;;;4970151;28;20346;-63
2022/11/13 12:41:19;;;;;;;6.67;6.07;;;;;;;;;;4982224;28;20315;-63
2022/11/13 12:44:05;;;;;;;7.30;6.60;;;;;;;;;;4984048;28;20729;-64
2022/11/13 12:46:34;;;;;;;8.17;6.20;;;;;;;;;;4981078;28;20561;-64
2022/11/13 12:49:14;;;;;;;6.90;6.20;;;;;;;;;;4975246;28;20207;-64
2022/11/13 12:51:52;;;;;;;7.60;6.77;;;;;;;;;;4969048;28;20318;-64
2022/11/13 12:54:46;;;;;;;7.90;7.10;;;;;;;;;;4967690;28;20218;-64
2022/11/13 12:57:14;;;;;;;7.30;6.50;;;;;;;;;;4968729;28;20301;-64
2022/11/13 12:59:43;;;;;;;7.30;6.60;;;;;;;;;;4966166;28;20231;-64
2022/11/13 13:02:13;;;;;;;7.70;7.00;;;;;;;;;;4975787;28;20849;-64
2022/11/13 13:04:43;;;;;;;6.97;6.30;;;;;;;;;;4984224;28;20644;-64
2022/11/13 13:07:11;;;;;;;7.07;6.20;;;;;;;;;;4987901;28;21376;-64
2022/11/13 13:09:42;;;;;;;8.40;7.20;;;;;;;;;;4986395;28;20274;-64
2022/11/13 13:12:45;;;;;;;7.77;6.97;;;;;;;;;;4984061;28;20334;-64
2022/11/13 13:15:24;;;;;;;7.17;6.53;;;;;;;;;;4926515;28;20271;-64
2022/11/13 13:18:06;;;;;;;9.60;7.50;;;;;;;;;;4962261;28;20240;-64
2022/11/13 13:20:35;;;;;;;7.60;6.90;;;;;;;;;;4968204;28;20216;-64
2022/11/13 13:23:03;;;;;;;7.23;6.53;;;;;;;;;;4965072;28;20278;-64
2022/11/13 13:25:35;;;;;;;7.80;7.00;;;;;;;;;;4968092;28;20211;-65
2022/11/13 13:28:18;;;;;;;8.17;7.37;;;;;;;;;;4971072;28;20208;-64
2022/11/13 13:30:51;;;;;;;8.43;7.63;;;;;;;;;;4966352;28;20235;-64
2022/11/13 13:33:21;;;;;;;7.47;6.77;;;;;;;;;;4966373;28;20223;-64
2022/11/13 13:35:48;;;;;;;9.60;8.17;;;;;;;;;;4986294;28;20518;-64
2022/11/13 13:38:26;;;;;;;8.40;7.60;;;;;;;;;;4985980;28;20203;-64
2022/11/13 13:40:55;;;;;;;8.37;6.93;;;;;;;;;;4951726;28;20242;-63
2022/11/13 13:43:27;;;;;;;7.32;6.47;;;;;;;;;;4949866;28;20220;-64
2022/11/13 13:46:15;;;;;;;7.27;6.57;;;;;;;;;;4951939;28;20220;-64
2022/11/13 13:48:44;;;;;;;7.43;6.73;;;;;;;;;;4955394;28;20318;-65
2022/11/13 13:51:16;;;;;;;7.30;6.70;;;;;;;;;;4955819;28;20242;-64
2022/11/13 13:53:45;;;;;;;8.10;7.30;;;;;;;;;;4957315;28;21258;-65
2022/11/13 13:56:13;;;;;;;8.07;7.27;;;;;;;;;;4967651;28;20204;-65
2022/11/13 13:58:41;;;;;;;7.93;7.23;;;;;;;;;;4969443;28;20668;-65
2022/11/13 14:01:13;;;;;;;7.97;7.27;;;;;;;;;;4958647;28;20262;-65
2022/11/13 14:03:46;;;;;;;8.40;7.57;;;;;;;;;;4955636;28;20331;-64
2022/11/13 14:06:23;;;;;;;8.57;7.67;;;;;;;;;;4972721;28;20231;-65
2022/11/13 14:08:51;;;;;;;9.40;7.93;;;;;;;;;;4964681;28;20309;-64
2022/11/13 14:11:20;;;;;;;8.60;7.80;;;;;;;;;;4966893;28;20338;-64
2022/11/13 14:13:47;;;;;;;8.70;7.90;;;;;;;;;;4973947;28;20955;-64
2022/11/13 14:16:15;;;;;;;9.27;8.20;;;;;;;;;;4952540;28;20399;-65
2022/11/13 14:18:43;;;;;;;11.23;9.97;;;;;;;;;;4953060;28;20242;-65
2022/11/13 14:21:14;;;;;;;9.83;8.93;;;;;;;;;;4958768;28;20863;-63
2022/11/13 14:23:45;;;;;;;10.00;9.00;;;;;;;;;;4949153;28;20592;-64
2022/11/13 14:26:13;;;;;;;9.40;8.50;;;;;;;;;;4958089;28;20684;-65
2022/11/13 14:28:52;;;;;;;12.20;10.40;;;;;;;;;;4957078;28;20641;-64
2022/11/13 14:31:24;;;;;;;11.20;10.03;;;;;;;;;;4959860;28;21211;-64
2022/11/13 14:33:52;;;;;;;9.77;8.80;;;;;;;;;;4968411;28;20199;-65
2022/11/13 14:36:25;;;;;;;10.63;9.47;;;;;;;;;;4965596;28;20648;-65
2022/11/13 14:38:53;;;;;;;10.37;9.27;;;;;;;;;;4965627;28;20338;-65
2022/11/13 14:41:29;;;;;;;15.60;12.90;;;;;;;;;;4964797;28;20315;-64
2022/11/13 14:43:57;;;;;;;21.53;18.37;;;;;;;;;;4975254;28;20217;-64
2022/11/13 14:46:35;;;;;;;16.77;13.63;;;;;;;;;;4973540;28;20302;-65
2022/11/13 14:49:02;;;;;;;12.57;11.37;;;;;;;;;;4973849;28;20274;-64
2022/11/13 14:51:31;;;;;;;13.17;11.13;;;;;;;;;;4973582;28;20334;-65